createdAt,value
2017-07-11T00:00:25.464Z,21.0
2017-07-11T00:01:27.732Z,20.9
2017-07-11T00:02:30.056Z,20.9
2017-07-11T00:03:32.290Z,20.9
2017-07-11T00:04:34.575Z,20.9
2017-07-11T00:05:36.905Z,21.0
2017-07-11T00:06:39.167Z,20.8
2017-07-11T00:07:41.378Z,20.9
2017-07-11T00:08:43.611Z,20.8
2017-07-11T00:09:45.882Z,20.8
2017-07-11T00:10:48.059Z,20.8
2017-07-11T00:11:50.367Z,20.7
2017-07-11T00:12:52.533Z,20.8
2017-07-11T00:13:54.754Z,20.8
2017-07-11T00:14:57.008Z,20.8
2017-07-11T00:15:59.178Z,20.8
2017-07-11T00:17:01.575Z,20.8
2017-07-11T00:18:03.878Z,20.7
2017-07-11T00:19:06.203Z,20.8
2017-07-11T00:20:08.428Z,20.7
2017-07-11T00:21:10.655Z,20.7
2017-07-11T00:22:12.869Z,20.8
2017-07-11T00:23:15.176Z,20.8
2017-07-11T00:24:17.426Z,20.7
2017-07-11T00:25:19.665Z,20.7
2017-07-11T00:26:21.932Z,20.7
2017-07-11T00:27:24.198Z,20.8
2017-07-11T00:28:26.495Z,20.7
2017-07-11T00:29:28.814Z,20.7
2017-07-11T00:30:31.057Z,20.6
2017-07-11T00:31:33.354Z,20.6
2017-07-11T00:32:35.603Z,20.7
2017-07-11T00:33:37.870Z,20.7
2017-07-11T00:34:40.112Z,20.6
2017-07-11T00:35:42.439Z,20.6
2017-07-11T00:36:44.693Z,20.6
2017-07-11T00:37:46.850Z,20.6
2017-07-11T00:38:49.112Z,20.6
2017-07-11T00:39:51.280Z,20.6
2017-07-11T00:40:53.577Z,20.5
2017-07-11T00:41:55.745Z,20.5
2017-07-11T00:42:57.899Z,20.6
2017-07-11T00:44:00.079Z,20.5
2017-07-11T00:45:02.378Z,20.5
2017-07-11T00:46:04.704Z,20.5
2017-07-11T00:47:06.951Z,20.4
2017-07-11T00:48:09.257Z,20.4
2017-07-11T00:49:11.527Z,20.4
2017-07-11T00:50:13.737Z,20.4
2017-07-11T00:51:16.046Z,20.4
2017-07-11T00:52:18.346Z,20.5
2017-07-11T00:53:20.585Z,20.4
2017-07-11T00:54:22.852Z,20.4
2017-07-11T00:55:25.057Z,20.3
2017-07-11T00:56:27.412Z,20.3
2017-07-11T00:57:29.588Z,20.3
2017-07-11T00:58:31.799Z,20.4
2017-07-11T00:59:34.047Z,20.3
2017-07-11T01:00:36.311Z,20.3
2017-07-11T01:01:38.632Z,20.2
2017-07-11T01:02:40.804Z,20.2
2017-07-11T01:03:43.056Z,20.3
2017-07-11T01:04:45.385Z,20.3
2017-07-11T01:05:47.602Z,20.2
2017-07-11T01:06:49.903Z,20.1
2017-07-11T01:07:52.149Z,20.2
2017-07-11T01:08:54.465Z,20.3
2017-07-11T01:09:56.762Z,20.2
2017-07-11T01:10:58.968Z,20.2
2017-07-11T01:12:01.213Z,20.2
2017-07-11T01:13:03.476Z,20.2
2017-07-11T01:14:05.609Z,20.3
2017-07-11T01:15:07.889Z,20.1
2017-07-11T01:16:10.187Z,20.2
2017-07-11T01:17:12.483Z,20.3
2017-07-11T01:18:14.837Z,20.3
2017-07-11T01:19:17.028Z,20.2
2017-07-11T01:20:19.463Z,20.2
2017-07-11T01:21:21.741Z,20.3
2017-07-11T01:22:24.037Z,20.3
2017-07-11T01:23:26.298Z,20.2
2017-07-11T01:24:28.577Z,20.2
2017-07-11T01:25:30.826Z,20.2
2017-07-11T01:26:33.121Z,20.2
2017-07-11T01:27:35.482Z,20.3
2017-07-11T01:28:37.563Z,20.3
2017-07-11T01:29:39.754Z,20.2
2017-07-11T01:30:42.057Z,20.2
2017-07-11T01:31:44.236Z,20.2
2017-07-11T01:32:46.434Z,20.2
2017-07-11T01:33:48.729Z,20.2
2017-07-11T01:34:50.987Z,20.2
2017-07-11T01:35:53.213Z,20.2
2017-07-11T01:36:55.412Z,20.2
2017-07-11T01:37:57.641Z,20.2
2017-07-11T01:38:59.947Z,20.2
2017-07-11T01:40:02.146Z,20.2
2017-07-11T01:41:04.551Z,20.2
2017-07-11T01:42:06.824Z,20.2
2017-07-11T01:43:09.102Z,20.2
2017-07-11T01:44:11.452Z,20.2
2017-07-11T01:45:13.796Z,20.2
2017-07-11T01:46:15.978Z,20.1
2017-07-11T01:47:18.187Z,20.2
2017-07-11T01:48:20.268Z,20.1
2017-07-11T01:49:22.461Z,20.1
2017-07-11T01:50:24.737Z,20.0
2017-07-11T01:51:26.995Z,20.1
2017-07-11T01:52:29.379Z,20.1
2017-07-11T01:53:31.676Z,20.0
2017-07-11T01:54:34.017Z,20.0
2017-07-11T01:55:36.285Z,20.0
2017-07-11T01:56:38.482Z,20.0
2017-07-11T01:57:40.769Z,20.1
2017-07-11T01:58:43.017Z,20.0
2017-07-11T01:59:45.201Z,19.9
2017-07-11T02:00:47.487Z,19.9
2017-07-11T02:01:49.741Z,20.0
2017-07-11T02:02:52.043Z,19.9
2017-07-11T02:03:54.390Z,19.9
2017-07-11T02:04:56.581Z,19.9
2017-07-11T02:05:58.831Z,19.8
2017-07-11T02:07:01.093Z,20.0
2017-07-11T02:08:03.274Z,19.9
2017-07-11T02:09:05.574Z,19.9
2017-07-11T02:10:07.944Z,19.8
2017-07-11T02:11:10.210Z,19.9
2017-07-11T02:12:12.457Z,19.9
2017-07-11T02:13:14.699Z,19.9
2017-07-11T02:14:17.078Z,19.9
2017-07-11T02:15:19.327Z,19.9
2017-07-11T02:16:21.595Z,19.9
2017-07-11T02:17:23.831Z,19.9
2017-07-11T02:18:26.157Z,19.9
2017-07-11T02:19:28.377Z,19.9
2017-07-11T02:20:30.629Z,19.9
2017-07-11T02:21:32.871Z,19.9
2017-07-11T02:22:35.116Z,19.9
2017-07-11T02:23:37.356Z,19.9
2017-07-11T02:24:39.549Z,19.9
2017-07-11T02:25:41.802Z,19.8
2017-07-11T02:26:44.032Z,19.8
2017-07-11T02:27:46.241Z,19.9
2017-07-11T02:28:48.570Z,19.9
2017-07-11T02:29:50.899Z,19.9
2017-07-11T02:30:53.177Z,19.8
2017-07-11T02:31:55.301Z,19.9
2017-07-11T02:32:57.597Z,19.8
2017-07-11T02:33:59.796Z,19.9
2017-07-11T02:35:01.956Z,19.9
2017-07-11T02:36:04.204Z,19.9
2017-07-11T02:37:06.490Z,19.9
2017-07-11T02:38:08.767Z,19.9
2017-07-11T02:39:11.077Z,19.9
2017-07-11T02:40:13.261Z,19.8
2017-07-11T02:41:15.534Z,19.8
2017-07-11T02:42:17.770Z,19.9
2017-07-11T02:43:20.105Z,19.9
2017-07-11T02:44:22.344Z,19.8
2017-07-11T02:45:24.678Z,19.8
2017-07-11T02:46:27.086Z,19.7
2017-07-11T02:47:29.278Z,19.7
2017-07-11T02:48:31.545Z,19.7
2017-07-11T02:49:33.757Z,19.7
2017-07-11T02:50:35.956Z,19.7
2017-07-11T02:51:38.216Z,19.8
2017-07-11T02:52:40.539Z,19.7
2017-07-11T02:53:42.838Z,19.7
2017-07-11T02:54:45.120Z,19.8
2017-07-11T02:55:47.245Z,19.7
2017-07-11T02:56:49.531Z,19.7
2017-07-11T02:57:51.861Z,19.7
2017-07-11T02:58:54.106Z,19.7
2017-07-11T02:59:56.329Z,19.8
2017-07-11T03:00:58.543Z,19.8
2017-07-11T03:02:00.787Z,19.7
2017-07-11T03:03:03.038Z,19.8
2017-07-11T03:04:05.336Z,19.8
2017-07-11T03:05:07.601Z,19.8
2017-07-11T03:06:09.804Z,19.9
2017-07-11T03:07:12.061Z,19.9
2017-07-11T03:08:14.262Z,19.8
2017-07-11T03:09:16.488Z,19.9
2017-07-11T03:10:18.670Z,19.9
2017-07-11T03:11:21.021Z,19.8
2017-07-11T03:12:23.261Z,19.9
2017-07-11T03:13:25.482Z,19.9
2017-07-11T03:14:27.731Z,19.9
2017-07-11T03:15:29.969Z,19.9
2017-07-11T03:16:32.228Z,19.9
2017-07-11T03:17:34.487Z,19.9
2017-07-11T03:18:36.591Z,19.9
2017-07-11T03:19:38.847Z,19.9
2017-07-11T03:20:41.035Z,19.9
2017-07-11T03:21:43.318Z,19.9
2017-07-11T03:22:45.608Z,19.9
2017-07-11T03:23:47.972Z,19.9
2017-07-11T03:24:50.222Z,20.0
2017-07-11T03:25:52.442Z,19.9
2017-07-11T03:26:54.704Z,20.0
2017-07-11T03:27:56.984Z,20.0
2017-07-11T03:28:59.223Z,20.0
2017-07-11T03:30:01.469Z,20.0
2017-07-11T03:31:03.601Z,20.0
2017-07-11T03:32:06.083Z,20.0
2017-07-11T03:33:08.287Z,20.0
2017-07-11T03:34:10.674Z,20.0
2017-07-11T03:35:13.033Z,20.0
2017-07-11T03:36:15.393Z,20.1
2017-07-11T03:37:17.827Z,20.1
2017-07-11T03:38:20.209Z,20.1
2017-07-11T03:39:22.676Z,20.1
2017-07-11T03:40:24.924Z,20.0
2017-07-11T03:41:27.365Z,20.2
2017-07-11T03:42:29.754Z,20.2
2017-07-11T03:43:32.125Z,20.1
2017-07-11T03:44:34.476Z,20.0
2017-07-11T03:45:36.848Z,20.1
2017-07-11T03:46:39.229Z,20.1
2017-07-11T03:48:51.881Z,20.1
2017-07-11T03:49:53.528Z,20.1
2017-07-11T03:50:55.118Z,20.1
2017-07-11T03:51:56.751Z,20.2
2017-07-11T03:52:58.378Z,20.2
2017-07-11T03:53:59.968Z,20.2
2017-07-11T03:55:01.593Z,20.2
2017-07-11T03:56:03.214Z,20.2
2017-07-11T03:57:05.051Z,20.2
2017-07-11T03:58:06.668Z,20.2
2017-07-11T03:59:08.508Z,20.2
2017-07-11T04:00:10.344Z,20.2
2017-07-11T04:01:12.175Z,20.2
2017-07-11T04:02:14.018Z,20.2
2017-07-11T04:03:15.626Z,20.2
2017-07-11T04:04:17.221Z,20.2
2017-07-11T04:05:18.845Z,20.2
2017-07-11T04:06:20.473Z,20.3
2017-07-11T04:07:22.078Z,20.3
2017-07-11T04:08:23.703Z,20.4
2017-07-11T04:09:25.330Z,20.3
2017-07-11T04:10:26.978Z,20.4
2017-07-11T04:11:28.888Z,20.3
2017-07-11T04:12:30.506Z,20.4
2017-07-11T04:13:32.117Z,20.4
2017-07-11T04:14:33.733Z,20.3
2017-07-11T04:15:35.373Z,20.4
2017-07-11T04:16:37.207Z,20.4
2017-07-11T04:17:38.837Z,20.4
2017-07-11T04:18:40.455Z,20.4
2017-07-11T04:19:42.305Z,20.5
2017-07-11T04:20:44.170Z,20.5
2017-07-11T04:21:46.026Z,20.5
2017-07-11T04:22:47.870Z,20.4
2017-07-11T04:23:49.483Z,20.5
2017-07-11T04:24:51.110Z,20.5
2017-07-11T04:25:52.738Z,20.5
2017-07-11T04:26:54.360Z,20.6
2017-07-11T04:27:55.996Z,20.5
2017-07-11T04:28:57.601Z,20.5
2017-07-11T04:29:59.227Z,20.6
2017-07-11T04:31:00.860Z,20.6
2017-07-11T04:32:02.461Z,20.5
2017-07-11T04:33:04.087Z,20.5
2017-07-11T04:34:05.730Z,20.6
2017-07-11T04:35:07.318Z,20.6
2017-07-11T04:36:08.963Z,20.5
2017-07-11T04:37:10.577Z,20.5
2017-07-11T04:38:12.581Z,20.5
2017-07-11T04:39:14.230Z,20.5
2017-07-11T04:40:15.859Z,20.6
2017-07-11T04:41:17.457Z,20.6
2017-07-11T04:42:19.078Z,20.6
2017-07-11T04:43:20.718Z,20.6
2017-07-11T04:44:22.323Z,20.6
2017-07-11T04:45:23.963Z,20.6
2017-07-11T04:46:25.583Z,20.7
2017-07-11T04:47:27.202Z,20.6
2017-07-11T04:48:28.815Z,20.6
2017-07-11T04:49:30.420Z,20.6
2017-07-11T04:50:32.068Z,20.6
2017-07-11T04:51:33.682Z,20.7
2017-07-11T04:52:35.997Z,20.7
2017-07-11T04:53:37.602Z,20.7
2017-07-11T04:54:39.227Z,20.7
2017-07-11T04:55:40.846Z,20.8
2017-07-11T04:56:42.489Z,20.7
2017-07-11T04:57:44.084Z,20.7
2017-07-11T04:58:45.714Z,20.7
2017-07-11T04:59:47.358Z,20.7
2017-07-11T05:00:48.969Z,20.7
2017-07-11T05:01:50.589Z,20.7
2017-07-11T05:02:52.219Z,20.7
2017-07-11T05:03:53.837Z,20.7
2017-07-11T05:04:55.430Z,20.7
2017-07-11T05:05:57.052Z,20.7
2017-07-11T05:06:58.725Z,20.7
2017-07-11T05:08:00.339Z,20.7
2017-07-11T05:09:01.962Z,20.7
2017-07-11T05:10:03.599Z,20.7
2017-07-11T05:11:05.209Z,20.7
2017-07-11T05:12:06.880Z,20.8
2017-07-11T05:13:08.513Z,20.8
2017-07-11T05:14:10.136Z,20.7
2017-07-11T05:15:11.754Z,20.7
2017-07-11T05:16:13.381Z,20.7
2017-07-11T05:17:15.208Z,20.7
2017-07-11T05:18:17.239Z,20.8
2017-07-11T05:19:20.340Z,20.8
2017-07-11T05:20:21.946Z,20.8
2017-07-11T05:21:23.605Z,20.8
2017-07-11T05:22:25.259Z,20.9
2017-07-11T05:23:26.868Z,21.0
2017-07-11T05:24:28.489Z,21.0
2017-07-11T05:25:30.108Z,20.9
2017-07-11T05:26:31.745Z,21.0
2017-07-11T05:27:33.332Z,21.0
2017-07-11T05:28:34.981Z,21.1
2017-07-11T05:29:36.584Z,21.0
2017-07-11T05:30:38.198Z,21.1
2017-07-11T05:31:39.822Z,21.1
2017-07-11T05:32:41.450Z,21.2
2017-07-11T05:33:43.092Z,21.2
2017-07-11T05:34:44.694Z,21.3
2017-07-11T05:35:46.316Z,21.3
2017-07-11T05:36:47.969Z,21.3
2017-07-11T05:37:49.558Z,21.3
2017-07-11T05:38:51.188Z,21.4
2017-07-11T05:39:52.807Z,21.4
2017-07-11T05:40:55.397Z,21.4
2017-07-11T05:41:57.023Z,21.5
2017-07-11T05:42:58.629Z,21.5
2017-07-11T05:44:00.267Z,21.6
2017-07-11T05:45:01.858Z,21.6
2017-07-11T05:46:03.499Z,21.6
2017-07-11T05:47:05.101Z,21.7
2017-07-11T05:48:06.753Z,21.8
2017-07-11T05:49:08.374Z,21.8
2017-07-11T05:50:09.969Z,21.9
2017-07-11T05:51:11.625Z,21.9
2017-07-11T05:52:13.226Z,21.9
2017-07-11T05:53:14.839Z,22.0
2017-07-11T05:54:16.469Z,22.1
2017-07-11T05:55:18.107Z,22.1
2017-07-11T05:56:19.731Z,22.2
2017-07-11T05:57:21.332Z,22.2
2017-07-11T05:58:22.968Z,22.3
2017-07-11T05:59:24.588Z,22.2
2017-07-11T06:00:26.221Z,22.4
2017-07-11T06:01:27.816Z,22.4
2017-07-11T06:02:29.461Z,22.5
2017-07-11T06:03:31.080Z,22.6
2017-07-11T06:04:32.694Z,22.5
2017-07-11T06:05:34.337Z,22.6
2017-07-11T06:06:35.961Z,22.7
2017-07-11T06:07:37.570Z,22.6
2017-07-11T06:08:39.207Z,22.8
2017-07-11T06:09:40.829Z,22.9
2017-07-11T06:10:42.451Z,22.8
2017-07-11T06:11:44.060Z,22.8
2017-07-11T06:12:45.690Z,22.8
2017-07-11T06:13:47.321Z,22.9
2017-07-11T06:14:48.911Z,22.9
2017-07-11T06:15:50.543Z,22.9
2017-07-11T06:16:52.163Z,23.0
2017-07-11T06:17:53.811Z,23.1
2017-07-11T06:18:55.417Z,23.1
2017-07-11T06:19:57.048Z,23.1
2017-07-11T06:20:58.670Z,23.2
2017-07-11T06:22:00.298Z,23.1
2017-07-11T06:23:01.899Z,23.1
2017-07-11T06:24:03.546Z,23.1
2017-07-11T06:25:05.168Z,23.0
2017-07-11T06:26:06.766Z,23.0
2017-07-11T06:27:08.384Z,23.0
2017-07-11T06:28:10.288Z,23.1
2017-07-11T06:29:11.911Z,23.2
2017-07-11T06:30:13.526Z,23.3
2017-07-11T06:31:15.391Z,23.3
2017-07-11T06:32:17.020Z,23.3
2017-07-11T06:33:18.651Z,23.4
2017-07-11T06:34:20.310Z,23.5
2017-07-11T06:35:21.924Z,23.6
2017-07-11T06:36:23.560Z,23.7
2017-07-11T06:37:25.182Z,23.8
2017-07-11T06:38:26.813Z,23.9
2017-07-11T06:39:30.374Z,24.0
2017-07-11T06:40:32.010Z,24.1
2017-07-11T06:41:33.617Z,24.1
2017-07-11T06:42:35.771Z,24.2
2017-07-11T06:43:38.847Z,24.3
2017-07-11T06:44:40.448Z,24.4
2017-07-11T06:45:42.069Z,24.5
2017-07-11T06:46:43.712Z,24.6
2017-07-11T06:47:45.345Z,24.7
2017-07-11T06:48:46.972Z,24.9
2017-07-11T06:49:48.570Z,25.0
2017-07-11T06:50:50.223Z,25.0
2017-07-11T06:51:51.837Z,25.0
2017-07-11T06:52:53.449Z,25.1
2017-07-11T06:53:55.097Z,25.2
2017-07-11T06:54:56.703Z,25.3
2017-07-11T06:55:58.329Z,25.4
2017-07-11T06:56:59.947Z,25.5
2017-07-11T06:58:01.599Z,25.6
2017-07-11T06:59:03.225Z,25.6
2017-07-11T07:00:04.824Z,25.4
2017-07-11T07:01:06.446Z,25.3
2017-07-11T07:02:08.101Z,25.5
2017-07-11T07:03:09.729Z,25.5
2017-07-11T07:04:11.332Z,25.3
2017-07-11T07:05:12.942Z,25.0
2017-07-11T07:06:14.599Z,24.9
2017-07-11T07:07:16.218Z,24.8
2017-07-11T07:08:17.841Z,24.6
2017-07-11T07:09:19.447Z,24.6
2017-07-11T07:10:21.093Z,24.5
2017-07-11T07:11:22.704Z,24.6
2017-07-11T07:12:24.336Z,24.7
2017-07-11T07:13:25.963Z,24.5
2017-07-11T07:14:27.559Z,24.6
2017-07-11T07:15:29.208Z,24.9
2017-07-11T07:16:30.805Z,24.9
2017-07-11T07:17:32.454Z,24.9
2017-07-11T07:18:34.079Z,24.8
2017-07-11T07:19:35.702Z,25.0
2017-07-11T07:20:37.330Z,25.0
2017-07-11T07:21:38.949Z,25.0
2017-07-11T07:22:40.584Z,25.0
2017-07-11T07:23:42.215Z,25.2
2017-07-11T07:24:43.836Z,25.4
2017-07-11T07:25:45.457Z,25.4
2017-07-11T07:26:47.065Z,25.6
2017-07-11T07:27:48.687Z,25.7
2017-07-11T07:28:50.333Z,25.6
2017-07-11T07:29:51.954Z,25.7
2017-07-11T07:30:53.563Z,25.9
2017-07-11T07:31:55.217Z,25.9
2017-07-11T07:32:56.841Z,25.7
2017-07-11T07:33:58.437Z,25.6
2017-07-11T07:35:00.083Z,25.7
2017-07-11T07:36:01.709Z,25.6
2017-07-11T07:37:03.313Z,26.0
2017-07-11T07:38:05.050Z,27.6
2017-07-11T07:39:06.670Z,29.0
2017-07-11T07:40:08.321Z,32.4
2017-07-11T07:41:09.930Z,34.3
2017-07-11T07:42:11.556Z,36.2
2017-07-11T07:43:13.203Z,37.7
2017-07-11T07:44:14.814Z,39.0
2017-07-11T07:45:16.455Z,40.2
2017-07-11T07:46:18.075Z,41.2
2017-07-11T07:47:19.700Z,42.1
2017-07-11T07:48:21.355Z,42.8
2017-07-11T07:49:22.987Z,43.9
2017-07-11T07:50:24.611Z,44.6
2017-07-11T07:51:27.064Z,45.3
2017-07-11T07:52:28.693Z,45.8
2017-07-11T07:53:30.351Z,46.2
2017-07-11T07:54:31.967Z,46.6
2017-07-11T07:55:33.579Z,47.0
2017-07-11T07:56:35.218Z,45.4
2017-07-11T07:57:36.858Z,41.8
2017-07-11T07:58:38.474Z,40.6
2017-07-11T07:59:40.108Z,42.8
2017-07-11T08:00:41.760Z,40.4
2017-07-11T08:01:43.365Z,42.7
2017-07-11T08:02:45.021Z,44.3
2017-07-11T08:03:46.644Z,45.4
2017-07-11T08:04:48.283Z,46.0
2017-07-11T08:05:49.889Z,46.5
2017-07-11T08:06:51.531Z,47.0
2017-07-11T08:07:53.173Z,47.4
2017-07-11T08:08:54.817Z,47.8
2017-07-11T08:09:56.452Z,48.4
2017-07-11T08:10:58.081Z,48.8
2017-07-11T08:11:59.710Z,49.2
2017-07-11T08:13:01.336Z,49.4
2017-07-11T08:14:02.954Z,49.5
2017-07-11T08:15:04.597Z,49.6
2017-07-11T08:16:06.221Z,49.4
2017-07-11T08:17:07.886Z,49.4
2017-07-11T08:18:09.516Z,49.7
2017-07-11T08:19:11.144Z,49.8
2017-07-11T08:20:12.778Z,50.3
2017-07-11T08:21:14.419Z,50.7
2017-07-11T08:22:16.064Z,51.1
2017-07-11T08:23:17.709Z,51.4
2017-07-11T08:24:19.346Z,51.6
2017-07-11T08:25:20.957Z,51.7
2017-07-11T08:26:22.598Z,51.8
2017-07-11T08:27:24.227Z,52.0
2017-07-11T08:28:25.881Z,52.2
2017-07-11T08:29:27.529Z,52.4
2017-07-11T08:30:29.164Z,52.6
2017-07-11T08:31:30.821Z,52.4
2017-07-11T08:32:32.438Z,52.6
2017-07-11T08:33:34.090Z,52.3
2017-07-11T08:34:35.738Z,52.8
2017-07-11T08:35:37.364Z,53.0
2017-07-11T08:36:39.014Z,53.0
2017-07-11T08:37:40.646Z,52.3
2017-07-11T08:38:42.276Z,52.5
2017-07-11T08:39:43.920Z,52.8
2017-07-11T08:40:45.528Z,53.2
2017-07-11T08:41:47.477Z,53.5
2017-07-11T08:42:49.093Z,53.8
2017-07-11T08:43:50.722Z,54.0
2017-07-11T08:44:52.367Z,54.0
2017-07-11T08:45:53.979Z,53.8
2017-07-11T08:46:55.642Z,54.0
2017-07-11T08:47:57.252Z,54.1
2017-07-11T08:48:58.885Z,54.1
2017-07-11T08:50:00.523Z,54.3
2017-07-11T08:51:02.198Z,52.8
2017-07-11T08:52:04.776Z,52.4
2017-07-11T08:53:07.916Z,53.6
2017-07-11T08:54:11.066Z,51.0
2017-07-11T08:55:12.693Z,52.4
2017-07-11T08:56:14.347Z,53.3
2017-07-11T08:57:15.972Z,53.8
2017-07-11T08:58:17.610Z,54.2
2017-07-11T08:59:19.244Z,54.3
2017-07-11T09:00:20.889Z,54.5
2017-07-11T09:01:23.495Z,54.6
2017-07-11T09:02:25.161Z,54.6
2017-07-11T09:03:26.799Z,54.6
2017-07-11T09:04:28.440Z,54.7
2017-07-11T09:05:30.049Z,54.6
2017-07-11T09:06:31.683Z,54.6
2017-07-11T09:07:33.317Z,53.3
2017-07-11T09:08:34.960Z,54.1
2017-07-11T09:09:36.597Z,52.0
2017-07-11T09:10:38.267Z,52.9
2017-07-11T09:11:39.890Z,52.9
2017-07-11T09:12:41.541Z,53.7
2017-07-11T09:13:43.150Z,53.9
2017-07-11T09:14:44.796Z,54.1
2017-07-11T09:15:46.451Z,54.3
2017-07-11T09:16:48.089Z,54.7
2017-07-11T09:17:49.702Z,54.7
2017-07-11T09:18:51.364Z,54.8
2017-07-11T09:19:52.975Z,54.8
2017-07-11T09:20:54.618Z,55.1
2017-07-11T09:21:56.249Z,52.4
2017-07-11T09:22:57.914Z,49.7
2017-07-11T09:23:59.531Z,47.8
2017-07-11T09:25:01.168Z,46.6
2017-07-11T09:26:02.820Z,45.9
2017-07-11T09:27:04.428Z,44.5
2017-07-11T09:28:06.087Z,43.2
2017-07-11T09:29:07.699Z,42.3
2017-07-11T09:30:09.367Z,41.7
2017-07-11T09:31:10.988Z,41.1
2017-07-11T09:32:12.626Z,40.7
2017-07-11T09:33:14.239Z,40.0
2017-07-11T09:34:15.882Z,39.6
2017-07-11T09:35:17.537Z,38.9
2017-07-11T09:36:19.175Z,38.5
2017-07-11T09:37:20.815Z,38.0
2017-07-11T09:38:22.425Z,37.5
2017-07-11T09:39:24.074Z,37.2
2017-07-11T09:40:25.692Z,36.9
2017-07-11T09:41:27.343Z,36.5
2017-07-11T09:42:28.993Z,36.3
2017-07-11T09:43:30.619Z,35.9
2017-07-11T09:44:32.225Z,35.6
2017-07-11T09:45:33.883Z,35.4
2017-07-11T09:46:35.505Z,35.1
2017-07-11T09:47:37.108Z,34.8
2017-07-11T09:48:38.771Z,34.5
2017-07-11T09:49:40.376Z,34.2
2017-07-11T09:50:42.020Z,34.1
2017-07-11T09:51:43.643Z,33.9
2017-07-11T09:52:45.281Z,33.7
2017-07-11T09:53:46.904Z,33.8
2017-07-11T09:54:48.544Z,33.7
2017-07-11T09:55:50.170Z,33.7
2017-07-11T09:56:51.801Z,33.7
2017-07-11T09:57:53.438Z,33.7
2017-07-11T09:58:55.072Z,33.9
2017-07-11T09:59:57.620Z,34.4
2017-07-11T10:00:59.967Z,33.8
2017-07-11T10:02:01.611Z,33.6
2017-07-11T10:03:03.228Z,33.4
2017-07-11T10:04:04.877Z,33.2
2017-07-11T10:05:06.482Z,33.0
2017-07-11T10:06:08.131Z,32.8
2017-07-11T10:07:09.735Z,32.7
2017-07-11T10:08:11.368Z,33.5
2017-07-11T10:09:13.019Z,33.9
2017-07-11T10:10:14.637Z,33.7
2017-07-11T10:11:16.276Z,33.5
2017-07-11T10:12:17.883Z,33.9
2017-07-11T10:13:19.524Z,34.9
2017-07-11T10:14:21.146Z,34.2
2017-07-11T10:15:22.785Z,33.7
2017-07-11T10:16:24.412Z,33.2
2017-07-11T10:17:26.020Z,32.9
2017-07-11T10:18:27.666Z,32.7
2017-07-11T10:19:29.311Z,32.7
2017-07-11T10:20:30.922Z,32.5
2017-07-11T10:21:32.544Z,32.4
2017-07-11T10:22:36.106Z,32.4
2017-07-11T10:23:37.773Z,32.3
2017-07-11T10:24:39.405Z,32.3
2017-07-11T10:25:41.014Z,32.2
2017-07-11T10:26:42.667Z,32.1
2017-07-11T10:27:44.297Z,31.9
2017-07-11T10:28:45.922Z,31.7
2017-07-11T10:29:47.523Z,31.6
2017-07-11T10:30:49.160Z,31.5
2017-07-11T10:31:50.806Z,31.6
2017-07-11T10:32:52.413Z,31.7
2017-07-11T10:33:54.063Z,31.7
2017-07-11T10:34:55.660Z,31.6
2017-07-11T10:35:57.319Z,31.5
2017-07-11T10:36:58.949Z,31.4
2017-07-11T10:38:00.577Z,31.5
2017-07-11T10:39:02.185Z,31.5
2017-07-11T10:40:03.831Z,31.7
2017-07-11T10:41:05.460Z,32.2
2017-07-11T10:42:07.070Z,33.0
2017-07-11T10:43:08.711Z,33.1
2017-07-11T10:44:10.328Z,33.1
2017-07-11T10:45:11.969Z,34.7
2017-07-11T10:46:13.581Z,37.1
2017-07-11T10:47:15.224Z,38.6
2017-07-11T10:48:16.884Z,37.5
2017-07-11T10:49:18.439Z,36.4
2017-07-11T10:50:20.037Z,35.9
2017-07-11T10:51:21.685Z,35.4
2017-07-11T10:52:23.297Z,35.0
2017-07-11T10:53:24.942Z,35.0
2017-07-11T10:54:26.569Z,36.4
2017-07-11T10:55:28.204Z,36.7
2017-07-11T10:56:29.880Z,35.7
2017-07-11T10:57:31.429Z,36.2
2017-07-11T10:58:33.046Z,36.4
2017-07-11T10:59:34.657Z,36.9
2017-07-11T11:00:36.290Z,37.2
2017-07-11T11:01:37.917Z,36.4
2017-07-11T11:02:39.545Z,35.7
2017-07-11T11:03:41.284Z,35.4
2017-07-11T11:04:42.903Z,35.0
2017-07-11T11:05:44.535Z,34.6
2017-07-11T11:06:46.158Z,34.4
2017-07-11T11:07:49.748Z,34.3
2017-07-11T11:08:51.394Z,34.4
2017-07-11T11:09:53.024Z,35.1
2017-07-11T11:10:54.652Z,35.0
2017-07-11T11:11:56.253Z,35.0
2017-07-11T11:12:57.906Z,34.9
2017-07-11T11:13:59.512Z,34.9
2017-07-11T11:15:01.171Z,34.7
2017-07-11T11:16:02.796Z,34.9
2017-07-11T11:17:04.405Z,35.0
2017-07-11T11:18:06.050Z,35.1
2017-07-11T11:19:07.663Z,35.4
2017-07-11T11:20:09.285Z,36.5
2017-07-11T11:21:10.941Z,37.0
2017-07-11T11:22:12.576Z,37.1
2017-07-11T11:23:14.186Z,36.6
2017-07-11T11:24:15.822Z,36.1
2017-07-11T11:25:17.453Z,35.6
2017-07-11T11:26:19.073Z,35.1
2017-07-11T11:27:20.686Z,34.9
2017-07-11T11:28:22.320Z,34.6
2017-07-11T11:29:23.955Z,34.4
2017-07-11T11:30:25.579Z,34.3
2017-07-11T11:31:27.521Z,33.8
2017-07-11T11:32:29.142Z,33.5
2017-07-11T11:33:30.774Z,33.3
2017-07-11T11:34:32.376Z,32.9
2017-07-11T11:35:34.026Z,32.6
2017-07-11T11:36:35.648Z,32.4
2017-07-11T11:37:37.288Z,32.4
2017-07-11T11:38:38.916Z,32.2
2017-07-11T11:39:40.525Z,32.0
2017-07-11T11:40:42.177Z,31.9
2017-07-11T11:41:43.795Z,32.3
2017-07-11T11:42:45.399Z,33.0
2017-07-11T11:43:47.053Z,32.9
2017-07-11T11:44:48.677Z,32.8
2017-07-11T11:45:50.301Z,33.3
2017-07-11T11:46:51.938Z,33.8
2017-07-11T11:47:53.570Z,34.0
2017-07-11T11:48:55.172Z,33.8
2017-07-11T11:49:56.789Z,33.4
2017-07-11T11:50:58.423Z,33.0
2017-07-11T11:52:00.075Z,32.6
2017-07-11T11:53:01.698Z,32.3
2017-07-11T11:54:03.417Z,32.7
2017-07-11T11:55:05.040Z,33.2
2017-07-11T11:56:06.652Z,33.7
2017-07-11T11:57:08.305Z,33.9
2017-07-11T11:58:09.904Z,34.3
2017-07-11T11:59:11.529Z,33.6
2017-07-11T12:00:13.179Z,33.2
2017-07-11T12:01:14.798Z,32.9
2017-07-11T12:02:16.433Z,33.0
2017-07-11T12:03:18.046Z,32.7
2017-07-11T12:04:19.650Z,32.6
2017-07-11T12:05:21.286Z,32.4
2017-07-11T12:06:22.918Z,32.5
2017-07-11T12:07:24.533Z,32.7
2017-07-11T12:08:26.179Z,32.7
2017-07-11T12:09:27.800Z,32.6
2017-07-11T12:10:29.438Z,32.8
2017-07-11T12:11:32.503Z,33.2
2017-07-11T12:12:36.103Z,33.4
2017-07-11T12:13:37.733Z,33.6
2017-07-11T12:14:39.356Z,33.3
2017-07-11T12:15:41.000Z,33.0
2017-07-11T12:16:42.602Z,32.7
2017-07-11T12:17:44.258Z,32.4
2017-07-11T12:18:45.861Z,32.1
2017-07-11T12:19:47.521Z,32.2
2017-07-11T12:20:49.119Z,32.0
2017-07-11T12:21:50.757Z,31.7
2017-07-11T12:22:52.386Z,31.7
2017-07-11T12:23:54.016Z,31.5
2017-07-11T12:24:55.639Z,31.5
2017-07-11T12:25:57.273Z,31.5
2017-07-11T12:26:58.909Z,31.8
2017-07-11T12:28:00.505Z,32.3
2017-07-11T12:29:02.157Z,32.7
2017-07-11T12:30:03.756Z,32.9
2017-07-11T12:31:05.408Z,33.2
2017-07-11T12:32:07.044Z,33.4
2017-07-11T12:33:08.674Z,33.4
2017-07-11T12:34:10.273Z,33.4
2017-07-11T12:35:11.899Z,33.5
2017-07-11T12:36:13.558Z,33.6
2017-07-11T12:37:15.153Z,33.5
2017-07-11T12:38:16.987Z,33.5
2017-07-11T12:39:20.022Z,33.2
2017-07-11T12:40:21.660Z,32.8
2017-07-11T12:41:24.270Z,32.4
2017-07-11T12:42:25.909Z,32.2
2017-07-11T12:43:27.529Z,31.9
2017-07-11T12:44:29.143Z,31.7
2017-07-11T12:45:30.764Z,31.5
2017-07-11T12:46:32.398Z,31.5
2017-07-11T12:47:34.020Z,31.3
2017-07-11T12:48:35.645Z,31.3
2017-07-11T12:49:37.290Z,31.2
2017-07-11T12:50:38.918Z,31.2
2017-07-11T12:51:40.523Z,31.4
2017-07-11T12:52:42.148Z,31.3
2017-07-11T12:53:43.795Z,31.4
2017-07-11T12:54:45.409Z,31.4
2017-07-11T12:55:47.029Z,31.4
2017-07-11T12:56:48.681Z,31.3
2017-07-11T12:57:50.279Z,31.1
2017-07-11T12:58:51.932Z,31.0
2017-07-11T12:59:53.558Z,30.9
2017-07-11T13:00:55.479Z,30.9
2017-07-11T13:01:57.109Z,30.9
2017-07-11T13:02:58.766Z,31.3
2017-07-11T13:04:00.390Z,31.6
2017-07-11T13:05:02.018Z,31.8
2017-07-11T13:06:03.660Z,32.1
2017-07-11T13:07:05.262Z,32.2
2017-07-11T13:08:06.910Z,32.3
2017-07-11T13:09:08.515Z,32.2
2017-07-11T13:10:10.172Z,32.1
2017-07-11T13:11:11.782Z,32.2
2017-07-11T13:12:13.425Z,32.1
2017-07-11T13:13:15.038Z,32.2
2017-07-11T13:14:16.646Z,32.3
2017-07-11T13:15:18.278Z,32.3
2017-07-11T13:16:19.958Z,32.4
2017-07-11T13:17:21.587Z,32.2
2017-07-11T13:18:23.222Z,32.1
2017-07-11T13:19:24.817Z,32.0
2017-07-11T13:20:28.442Z,32.2
2017-07-11T13:21:30.337Z,32.1
2017-07-11T13:22:31.975Z,32.1
2017-07-11T13:23:33.615Z,32.1
2017-07-11T13:24:35.214Z,32.2
2017-07-11T13:25:36.860Z,32.3
2017-07-11T13:26:38.489Z,32.3
2017-07-11T13:27:40.093Z,32.4
2017-07-11T13:28:41.734Z,32.6
2017-07-11T13:29:43.368Z,32.6
2017-07-11T13:30:45.000Z,32.7
2017-07-11T13:31:46.625Z,32.7
2017-07-11T13:32:48.231Z,32.8
2017-07-11T13:33:49.854Z,32.6
2017-07-11T13:34:51.498Z,32.5
2017-07-11T13:35:53.113Z,32.3
2017-07-11T13:36:54.738Z,32.5
2017-07-11T13:37:56.382Z,32.2
2017-07-11T13:38:58.659Z,32.1
2017-07-11T13:40:00.273Z,32.3
2017-07-11T13:41:01.897Z,32.1
2017-07-11T13:42:05.426Z,32.0
2017-07-11T13:43:07.042Z,32.0
2017-07-11T13:44:08.688Z,31.9